Fairplain, West Virginia
Current Conditions -  °F | °C
As of 1:35 PM on Saturday 25 Oct 2014 (Local Time) from K3I2 Reporting Station
Overcast Overcast  
Wind Chill: 66°   Ceiling: 5000
Heat Index: 66°   Visibility: 10mi
Dew Point: 50°   Wind: 9mph
Humidity: 56%   Direction: 240°WSW
Pressure: 29.97"   Gusts: NA
Location:  38.8125°N, 81.6945°W
Report Text: K3I2 251735Z AUTO 24008KT 10SM OVC050 19/10 A2997 RMK AO2
Loading
Personal Weather Stations






























Interactive Weather Map
Tropical Storm Tracking
New forecast layout! Learn more

10-Day Weather Forecast

Advertisements
Track Severe Weather on mobile